Time;durP1;ratioP1;P1;durP2;ratioP2;P2;SDS_P1;SDS_P2;PMS_P1;PMS_P2;Temp;Humidity;BMP_temperature;BMP_pressure;BME280_temperature;BME280_humidity;BME280_pressure;Samples;Min_cycle;Max_cycle;Signal;HPM_P1;HPM_P2
2023/01/07 00:00:02;;;;;;;15.18;11.10;;;;;;;;;;4937332;28;94281;-87
2023/01/07 00:02:28;;;;;;;16.55;11.70;;;;;;;;;;4937404;28;90136;-85
2023/01/07 00:04:55;;;;;;;14.95;10.73;;;;;;;;;;4938095;28;89943;-86
2023/01/07 00:07:21;;;;;;;15.95;10.80;;;;;;;;;;4937618;28;90874;-86
2023/01/07 00:09:47;;;;;;;13.40;10.23;;;;;;;;;;4937682;28;93245;-86
2023/01/07 00:12:14;;;;;;;13.50;10.60;;;;;;;;;;4937455;28;93150;-86
2023/01/07 00:14:40;;;;;;;12.07;9.70;;;;;;;;;;4935972;28;94401;-86
2023/01/07 00:17:09;;;;;;;11.63;9.27;;;;;;;;;;4941312;28;91127;-86
2023/01/07 00:19:35;;;;;;;12.95;10.00;;;;;;;;;;4938181;28;88108;-86
2023/01/07 00:22:01;;;;;;;11.55;9.57;;;;;;;;;;4935304;28;89766;-85
2023/01/07 00:24:27;;;;;;;12.20;9.55;;;;;;;;;;4937826;28;89552;-86
2023/01/07 00:26:54;;;;;;;14.88;9.70;;;;;;;;;;4936308;28;92178;-86
2023/01/07 00:29:20;;;;;;;13.15;9.68;;;;;;;;;;4936865;28;93582;-86
2023/01/07 00:31:47;;;;;;;11.55;9.65;;;;;;;;;;4937909;28;91937;-86
2023/01/07 00:34:13;;;;;;;16.92;9.60;;;;;;;;;;4936715;28;88653;-86
2023/01/07 00:36:43;;;;;;;12.57;8.35;;;;;;;;;;4938162;28;88999;-86
2023/01/07 00:39:13;;;;;;;10.23;8.25;;;;;;;;;;4936892;28;93440;-86
2023/01/07 00:41:39;;;;;;;12.82;7.28;;;;;;;;;;4935306;28;90262;-86
2023/01/07 00:44:06;;;;;;;10.20;7.80;;;;;;;;;;4918522;28;90106;-86
2023/01/07 00:46:32;;;;;;;9.30;7.40;;;;;;;;;;4931130;28;91790;-86
2023/01/07 00:49:00;;;;;;;15.05;7.88;;;;;;;;;;4937678;28;92792;-86
2023/01/07 00:51:26;;;;;;;9.38;7.15;;;;;;;;;;4937537;28;89952;-86
2023/01/07 00:53:52;;;;;;;11.63;7.32;;;;;;;;;;4938970;28;92230;-87
2023/01/07 00:56:19;;;;;;;8.68;6.72;;;;;;;;;;4939330;28;89849;-86
2023/01/07 00:58:46;;;;;;;10.63;7.15;;;;;;;;;;4937744;28;89712;-86
2023/01/07 01:01:12;;;;;;;11.38;7.05;;;;;;;;;;4940061;28;89611;-86
2023/01/07 01:03:39;;;;;;;12.48;7.30;;;;;;;;;;4936450;28;90333;-86
2023/01/07 01:06:06;;;;;;;11.40;7.00;;;;;;;;;;4936531;28;88184;-87
2023/01/07 01:08:33;;;;;;;10.70;6.78;;;;;;;;;;4937172;28;89785;-87
2023/01/07 01:11:06;;;;;;;13.48;7.95;;;;;;;;;;4934302;28;90361;-89
2023/01/07 01:13:33;;;;;;;12.82;7.85;;;;;;;;;;4936129;28;89303;-86
2023/01/07 01:15:59;;;;;;;13.23;7.38;;;;;;;;;;4936647;28;91197;-85
2023/01/07 01:18:26;;;;;;;14.68;8.00;;;;;;;;;;4936183;28;90101;-86
2023/01/07 01:20:53;;;;;;;19.48;8.57;;;;;;;;;;4938026;28;91975;-89
2023/01/07 01:23:20;;;;;;;15.40;9.10;;;;;;;;;;4939016;28;89034;-89
2023/01/07 01:25:46;;;;;;;17.88;8.57;;;;;;;;;;4936352;28;88974;-89
2023/01/07 01:28:13;;;;;;;16.38;8.90;;;;;;;;;;4937515;28;92147;-87
2023/01/07 01:30:39;;;;;;;15.77;8.60;;;;;;;;;;4935002;28;92308;-86
2023/01/07 01:33:05;;;;;;;18.52;8.48;;;;;;;;;;4937356;28;88722;-86
2023/01/07 01:35:32;;;;;;;16.20;8.57;;;;;;;;;;4935710;28;89847;-88
2023/01/07 01:37:59;;;;;;;15.02;8.23;;;;;;;;;;4935276;28;90867;-86
2023/01/07 01:40:28;;;;;;;15.65;8.30;;;;;;;;;;4928194;28;89289;-86
2023/01/07 01:42:55;;;;;;;14.90;9.10;;;;;;;;;;4926463;28;91864;-86
2023/01/07 01:45:21;;;;;;;14.27;8.38;;;;;;;;;;4941436;28;91448;-88
2023/01/07 01:47:50;;;;;;;21.25;9.45;;;;;;;;;;4937549;28;87997;-88
2023/01/07 01:50:20;;;;;;;16.60;9.45;;;;;;;;;;4937148;28;93404;-88
2023/01/07 01:52:50;;;;;;;14.70;9.23;;;;;;;;;;4938084;28;88777;-87
2023/01/07 01:55:18;;;;;;;13.88;9.65;;;;;;;;;;4941579;28;91773;-87
2023/01/07 01:57:45;;;;;;;15.73;9.02;;;;;;;;;;4940199;28;91848;-88
2023/01/07 02:00:12;;;;;;;17.83;9.15;;;;;;;;;;4940194;28;88971;-88
2023/01/07 02:02:42;;;;;;;15.07;9.13;;;;;;;;;;4940510;28;89948;-88
2023/01/07 02:05:09;;;;;;;15.70;8.82;;;;;;;;;;4942893;28;88314;-88
2023/01/07 02:07:35;;;;;;;16.38;9.77;;;;;;;;;;4940564;28;92805;-85
2023/01/07 02:10:13;;;;;;;14.52;8.85;;;;;;;;;;4940987;28;89130;-88
2023/01/07 02:12:44;;;;;;;15.93;9.15;;;;;;;;;;4952488;28;89272;-88
2023/01/07 02:15:12;;;;;;;16.30;8.40;;;;;;;;;;4939162;28;89778;-89
2023/01/07 02:17:45;;;;;;;18.80;8.98;;;;;;;;;;4939657;28;90989;-87
2023/01/07 02:20:15;;;;;;;14.45;8.52;;;;;;;;;;4938963;28;89123;-88
2023/01/07 02:22:50;;;;;;;16.23;8.52;;;;;;;;;;4939378;28;92536;-88
2023/01/07 02:25:36;;;;;;;13.95;8.13;;;;;;;;;;4937692;28;90239;-87
2023/01/07 02:28:29;;;;;;;13.57;8.20;;;;;;;;;;4941287;28;88531;-88
2023/01/07 02:31:14;;;;;;;17.13;8.35;;;;;;;;;;4921102;28;92770;-89
2023/01/07 02:33:46;;;;;;;15.20;8.35;;;;;;;;;;4938497;28;89199;-88
2023/01/07 02:36:19;;;;;;;16.50;8.60;;;;;;;;;;4938345;28;93032;-87
2023/01/07 02:39:00;;;;;;;12.13;7.70;;;;;;;;;;4935587;28;90033;-88
2023/01/07 02:41:45;;;;;;;16.75;8.65;;;;;;;;;;4920454;28;89419;-88
2023/01/07 02:44:18;;;;;;;12.13;7.45;;;;;;;;;;4928721;28;92881;-87
2023/01/07 02:46:44;;;;;;;19.83;8.10;;;;;;;;;;4939733;28;91848;-88
2023/01/07 02:49:13;;;;;;;13.95;7.63;;;;;;;;;;4939485;28;89064;-87
2023/01/07 02:51:40;;;;;;;13.40;7.95;;;;;;;;;;4923168;28;89325;-88
2023/01/07 02:54:08;;;;;;;15.70;7.53;;;;;;;;;;4935957;28;89324;-88
2023/01/07 02:56:34;;;;;;;17.92;7.32;;;;;;;;;;4940538;28;92173;-88
2023/01/07 02:59:16;;;;;;;16.90;8.02;;;;;;;;;;4937692;28;94585;-88
2023/01/07 03:02:08;;;;;;;13.55;8.45;;;;;;;;;;4937277;28;91767;-87
2023/01/07 03:04:50;;;;;;;12.35;7.47;;;;;;;;;;4935887;28;96165;-87
2023/01/07 03:07:34;;;;;;;16.08;7.65;;;;;;;;;;4934484;28;94469;-87
2023/01/07 03:10:10;;;;;;;17.30;7.32;;;;;;;;;;4930921;28;95055;-89
2023/01/07 03:12:36;;;;;;;15.55;7.57;;;;;;;;;;4935695;28;96846;-87
2023/01/07 03:15:21;;;;;;;12.30;7.10;;;;;;;;;;4939032;28;94621;-87
2023/01/07 03:17:51;;;;;;;12.60;7.00;;;;;;;;;;4936473;28;93884;-88
2023/01/07 03:20:19;;;;;;;15.27;6.93;;;;;;;;;;4933915;28;97555;-88
2023/01/07 03:22:46;;;;;;;11.35;6.38;;;;;;;;;;4937375;28;92437;-87
2023/01/07 03:25:13;;;;;;;17.73;6.80;;;;;;;;;;4935362;28;94549;-87
2023/01/07 03:27:41;;;;;;;17.40;6.03;;;;;;;;;;4936025;28;93783;-87
2023/01/07 03:30:10;;;;;;;12.57;6.82;;;;;;;;;;4934996;28;93028;-88
2023/01/07 03:32:56;;;;;;;12.20;6.60;;;;;;;;;;4934745;28;93866;-87
2023/01/07 03:35:23;;;;;;;15.00;6.18;;;;;;;;;;4934242;28;96939;-88
2023/01/07 03:37:50;;;;;;;13.70;5.88;;;;;;;;;;4938491;28;93072;-87
2023/01/07 03:40:18;;;;;;;13.93;6.93;;;;;;;;;;4934811;28;94489;-87
2023/01/07 03:42:46;;;;;;;17.73;6.50;;;;;;;;;;4936249;28;92386;-88
2023/01/07 03:45:17;;;;;;;8.02;5.88;;;;;;;;;;4934384;28;93847;-88
2023/01/07 03:47:45;;;;;;;13.52;6.53;;;;;;;;;;4935160;28;94901;-88
2023/01/07 03:50:11;;;;;;;11.38;5.95;;;;;;;;;;4936696;28;92399;-88
2023/01/07 03:52:37;;;;;;;15.35;6.75;;;;;;;;;;4937582;28;94329;-88
2023/01/07 03:55:04;;;;;;;14.70;6.15;;;;;;;;;;4934871;28;94795;-87
2023/01/07 03:57:31;;;;;;;12.35;5.90;;;;;;;;;;4936760;28;92690;-87
2023/01/07 03:59:57;;;;;;;7.75;5.47;;;;;;;;;;4935925;28;97532;-87
2023/01/07 04:02:24;;;;;;;16.70;6.85;;;;;;;;;;4934865;28;92957;-88
2023/01/07 04:04:50;;;;;;;13.00;6.05;;;;;;;;;;4935316;28;93831;-88
2023/01/07 04:07:17;;;;;;;10.55;6.05;;;;;;;;;;4933835;28;94430;-87
2023/01/07 04:09:45;;;;;;;18.20;6.65;;;;;;;;;;4934341;28;92822;-87
2023/01/07 04:12:13;;;;;;;12.93;5.97;;;;;;;;;;4933514;28;94207;-87
2023/01/07 04:14:39;;;;;;;13.48;6.47;;;;;;;;;;4933928;28;97554;-87
2023/01/07 04:17:05;;;;;;;10.98;5.85;;;;;;;;;;4934701;28;92060;-87
2023/01/07 04:19:32;;;;;;;9.88;5.45;;;;;;;;;;4938132;28;93924;-88
2023/01/07 04:21:58;;;;;;;14.10;5.90;;;;;;;;;;4935213;28;92453;-88
2023/01/07 04:24:24;;;;;;;13.43;5.93;;;;;;;;;;4933603;28;96729;-87
2023/01/07 04:26:51;;;;;;;11.18;5.57;;;;;;;;;;4935342;28;97628;-87
2023/01/07 04:29:17;;;;;;;8.30;5.78;;;;;;;;;;4934092;28;92847;-87
2023/01/07 04:31:46;;;;;;;15.07;5.90;;;;;;;;;;4933857;28;94352;-88
2023/01/07 04:34:12;;;;;;;14.15;6.07;;;;;;;;;;4934171;28;96991;-89
2023/01/07 04:36:38;;;;;;;7.15;4.82;;;;;;;;;;4933284;28;92570;-87
2023/01/07 04:39:05;;;;;;;11.07;5.47;;;;;;;;;;4933565;28;94446;-88
2023/01/07 04:41:31;;;;;;;9.68;6.15;;;;;;;;;;4939216;28;94096;-88
2023/01/07 04:43:57;;;;;;;14.57;6.05;;;;;;;;;;4934870;28;93509;-87
2023/01/07 04:46:24;;;;;;;8.90;5.70;;;;;;;;;;4934314;28;97859;-87
2023/01/07 04:48:50;;;;;;;7.47;4.78;;;;;;;;;;4933327;28;94856;-87
2023/01/07 04:51:19;;;;;;;6.22;5.32;;;;;;;;;;4930274;28;99344;-89
2023/01/07 04:53:45;;;;;;;12.13;6.50;;;;;;;;;;4926130;28;93114;-89
2023/01/07 04:56:12;;;;;;;8.90;5.47;;;;;;;;;;4934275;28;93758;-89
2023/01/07 04:58:38;;;;;;;12.05;5.38;;;;;;;;;;4934518;28;93857;-90
2023/01/07 05:01:05;;;;;;;10.88;5.25;;;;;;;;;;4934289;28;94956;-89
2023/01/07 05:03:35;;;;;;;5.43;4.60;;;;;;;;;;4936963;28;93314;-89
2023/01/07 05:06:01;;;;;;;8.27;4.78;;;;;;;;;;4933961;28;95755;-90
2023/01/07 05:08:28;;;;;;;6.07;5.15;;;;;;;;;;4934431;28;92564;-90
2023/01/07 05:10:54;;;;;;;14.05;5.05;;;;;;;;;;4933367;28;92812;-89
2023/01/07 05:13:23;;;;;;;11.55;5.13;;;;;;;;;;4931992;28;99597;-89
2023/01/07 05:15:49;;;;;;;15.95;5.15;;;;;;;;;;4933452;28;92456;-90
2023/01/07 05:18:15;;;;;;;14.43;4.72;;;;;;;;;;4934141;28;94546;-89
2023/01/07 05:20:42;;;;;;;7.63;4.43;;;;;;;;;;4934092;28;97872;-89
2023/01/07 05:23:08;;;;;;;9.98;5.10;;;;;;;;;;4935040;28;92436;-89
2023/01/07 05:25:34;;;;;;;8.30;4.80;;;;;;;;;;4936344;28;97134;-89
2023/01/07 05:28:01;;;;;;;8.77;5.15;;;;;;;;;;4932715;28;92582;-89
2023/01/07 05:30:27;;;;;;;9.38;4.55;;;;;;;;;;4932540;28;97511;-89
2023/01/07 05:32:53;;;;;;;7.32;4.63;;;;;;;;;;4933388;28;94867;-89
2023/01/07 05:35:20;;;;;;;8.50;4.72;;;;;;;;;;4933611;28;92974;-88
2023/01/07 05:37:46;;;;;;;10.05;4.38;;;;;;;;;;4932851;28;94884;-90
2023/01/07 05:40:13;;;;;;;6.25;4.32;;;;;;;;;;4935047;28;96652;-89
2023/01/07 05:42:39;;;;;;;10.25;4.45;;;;;;;;;;4934532;28;92420;-89
2023/01/07 05:45:06;;;;;;;8.75;4.22;;;;;;;;;;4932936;28;97092;-88
2023/01/07 05:47:32;;;;;;;12.07;4.65;;;;;;;;;;4937454;28;97684;-89
2023/01/07 05:49:59;;;;;;;5.30;4.18;;;;;;;;;;4933507;28;94264;-89
2023/01/07 05:52:25;;;;;;;9.13;5.20;;;;;;;;;;4933717;28;94462;-89
2023/01/07 05:54:51;;;;;;;7.55;4.20;;;;;;;;;;4935126;28;91983;-88
2023/01/07 05:57:18;;;;;;;7.07;4.45;;;;;;;;;;4933581;28;93495;-88
2023/01/07 05:59:44;;;;;;;7.30;4.45;;;;;;;;;;4935004;28;97363;-89
2023/01/07 06:02:11;;;;;;;8.50;3.92;;;;;;;;;;4947815;28;94806;-88
2023/01/07 06:04:37;;;;;;;10.77;4.30;;;;;;;;;;4941885;28;96845;-89
2023/01/07 06:07:03;;;;;;;6.57;4.05;;;;;;;;;;4933833;28;97607;-89
2023/01/07 06:09:30;;;;;;;11.30;4.32;;;;;;;;;;4936567;28;92682;-88
2023/01/07 06:11:56;;;;;;;10.38;4.32;;;;;;;;;;4935294;28;96756;-89
2023/01/07 06:14:22;;;;;;;8.07;3.67;;;;;;;;;;4949195;28;92429;-88
2023/01/07 06:16:49;;;;;;;3.92;3.45;;;;;;;;;;4938287;28;94458;-89
2023/01/07 06:19:15;;;;;;;10.15;3.85;;;;;;;;;;4933871;28;95712;-89
2023/01/07 06:21:41;;;;;;;9.00;3.40;;;;;;;;;;4935464;28;92463;-89
2023/01/07 06:24:09;;;;;;;5.90;3.58;;;;;;;;;;4933795;28;96477;-89
2023/01/07 06:26:35;;;;;;;4.15;2.75;;;;;;;;;;4931944;28;96942;-89
2023/01/07 06:29:01;;;;;;;7.85;3.60;;;;;;;;;;4938327;28;92460;-89
2023/01/07 06:31:28;;;;;;;10.52;3.25;;;;;;;;;;4921259;28;93653;-89
2023/01/07 06:33:54;;;;;;;8.10;3.63;;;;;;;;;;4932639;28;92462;-89
2023/01/07 06:36:20;;;;;;;4.25;2.65;;;;;;;;;;4932431;28;97352;-89
2023/01/07 06:38:47;;;;;;;5.55;2.72;;;;;;;;;;4933222;28;94573;-88
2023/01/07 06:41:13;;;;;;;16.52;3.30;;;;;;;;;;4933753;28;92473;-88
2023/01/07 06:43:39;;;;;;;3.95;2.80;;;;;;;;;;4937924;28;95950;-88
2023/01/07 06:46:06;;;;;;;3.88;3.25;;;;;;;;;;4935753;28;94680;-89
2023/01/07 06:48:32;;;;;;;6.97;3.10;;;;;;;;;;4938336;28;92448;-89
2023/01/07 06:50:59;;;;;;;5.57;2.90;;;;;;;;;;4936689;28;97269;-88
2023/01/07 06:53:25;;;;;;;7.88;3.38;;;;;;;;;;4936949;28;92510;-89
2023/01/07 06:55:51;;;;;;;6.13;3.42;;;;;;;;;;4937269;28;96682;-89
2023/01/07 06:58:18;;;;;;;5.20;3.40;;;;;;;;;;4937225;28;98061;-88
2023/01/07 07:00:44;;;;;;;7.80;3.70;;;;;;;;;;4935608;28;92632;-88
2023/01/07 07:03:11;;;;;;;8.52;3.10;;;;;;;;;;4936793;28;94261;-88
2023/01/07 07:05:37;;;;;;;5.28;2.80;;;;;;;;;;4935426;28;95026;-88
2023/01/07 07:08:04;;;;;;;6.72;3.10;;;;;;;;;;4936929;28;91709;-88
2023/01/07 07:10:31;;;;;;;5.97;3.00;;;;;;;;;;4936974;28;93207;-87
2023/01/07 07:12:57;;;;;;;8.60;2.97;;;;;;;;;;4939723;28;94565;-88
2023/01/07 07:15:24;;;;;;;6.65;2.97;;;;;;;;;;4936091;28;97484;-89
2023/01/07 07:17:50;;;;;;;7.22;3.30;;;;;;;;;;4936497;28;97705;-89
2023/01/07 07:20:16;;;;;;;5.75;2.58;;;;;;;;;;4936648;28;92699;-87
2023/01/07 07:22:44;;;;;;;4.53;2.63;;;;;;;;;;4937268;28;93267;-87
2023/01/07 07:25:11;;;;;;;5.47;2.90;;;;;;;;;;4943913;28;97278;-87
2023/01/07 07:27:37;;;;;;;4.72;2.50;;;;;;;;;;4938409;28;92518;-87
2023/01/07 07:30:04;;;;;;;5.47;3.25;;;;;;;;;;4934600;28;96866;-88
2023/01/07 07:32:30;;;;;;;5.03;2.85;;;;;;;;;;4935362;28;96518;-88
2023/01/07 07:34:56;;;;;;;5.85;2.50;;;;;;;;;;4939190;28;92523;-87
2023/01/07 07:37:22;;;;;;;4.13;2.30;;;;;;;;;;4936219;28;94597;-87
2023/01/07 07:39:49;;;;;;;3.90;2.20;;;;;;;;;;4920294;28;94865;-89
2023/01/07 07:42:15;;;;;;;3.83;2.20;;;;;;;;;;4933404;28;95543;-89
2023/01/07 07:44:41;;;;;;;2.15;1.70;;;;;;;;;;4935308;28;93992;-88
2023/01/07 07:47:08;;;;;;;3.15;2.13;;;;;;;;;;4935444;28;92367;-87
2023/01/07 07:49:35;;;;;;;6.18;1.95;;;;;;;;;;4935597;28;96212;-87
2023/01/07 07:52:01;;;;;;;3.88;2.00;;;;;;;;;;4935071;28;97635;-87
2023/01/07 07:54:27;;;;;;;3.88;1.88;;;;;;;;;;4936479;28;92391;-87
2023/01/07 07:56:54;;;;;;;3.95;2.03;;;;;;;;;;4939567;28;92850;-88
2023/01/07 07:59:20;;;;;;;4.78;1.80;;;;;;;;;;4936444;28;92780;-87
2023/01/07 08:01:46;;;;;;;2.45;1.85;;;;;;;;;;4934521;28;97241;-87
2023/01/07 08:04:13;;;;;;;11.27;2.60;;;;;;;;;;4932863;28;100087;-88
2023/01/07 08:06:39;;;;;;;2.78;1.60;;;;;;;;;;4934086;28;92613;-87
2023/01/07 08:09:06;;;;;;;3.70;1.40;;;;;;;;;;4935803;28;93073;-87
2023/01/07 08:11:32;;;;;;;3.95;1.88;;;;;;;;;;4933064;28;97186;-87
2023/01/07 08:13:58;;;;;;;3.67;2.47;;;;;;;;;;4934976;28;92400;-88
2023/01/07 08:16:25;;;;;;;5.90;2.45;;;;;;;;;;4937960;28;95666;-87
2023/01/07 08:18:51;;;;;;;2.20;1.65;;;;;;;;;;4936531;28;92487;-87
2023/01/07 08:21:18;;;;;;;8.30;1.77;;;;;;;;;;4932819;28;95479;-88
2023/01/07 08:23:44;;;;;;;2.22;1.38;;;;;;;;;;4934934;28;97562;-88
2023/01/07 08:26:10;;;;;;;2.35;1.60;;;;;;;;;;4934074;28;92609;-87
2023/01/07 08:28:37;;;;;;;7.22;1.77;;;;;;;;;;4932748;28;94878;-88
2023/01/07 08:31:04;;;;;;;2.03;1.65;;;;;;;;;;4935709;28;94034;-87
2023/01/07 08:33:36;;;;;;;5.88;1.80;;;;;;;;;;4935560;28;92964;-87
2023/01/07 08:36:06;;;;;;;4.25;1.63;;;;;;;;;;4935454;28;94538;-87
2023/01/07 08:38:53;;;;;;;3.55;1.70;;;;;;;;;;4932333;28;94824;-87
2023/01/07 08:41:23;;;;;;;8.48;1.90;;;;;;;;;;4934406;28;94234;-87
2023/01/07 08:43:50;;;;;;;2.83;1.73;;;;;;;;;;4934526;28;97702;-87
2023/01/07 08:46:16;;;;;;;4.22;1.90;;;;;;;;;;4936900;28;91720;-87
2023/01/07 08:48:42;;;;;;;3.20;1.55;;;;;;;;;;4936412;28;93468;-87
2023/01/07 08:51:09;;;;;;;3.05;1.45;;;;;;;;;;4934135;28;94505;-87
2023/01/07 08:53:35;;;;;;;1.98;1.50;;;;;;;;;;4930818;28;95839;-87
2023/01/07 08:56:02;;;;;;;2.95;1.40;;;;;;;;;;4935297;28;99104;-87
2023/01/07 08:58:28;;;;;;;3.47;1.52;;;;;;;;;;4935124;28;94717;-88
2023/01/07 09:00:59;;;;;;;5.32;1.70;;;;;;;;;;4937493;28;92646;-87
2023/01/07 09:03:25;;;;;;;2.03;1.30;;;;;;;;;;4932946;28;94352;-87
2023/01/07 09:05:51;;;;;;;1.13;1.00;;;;;;;;;;4932556;28;92648;-87
2023/01/07 09:08:18;;;;;;;1.27;1.17;;;;;;;;;;4934265;28;96112;-87
2023/01/07 09:10:44;;;;;;;2.60;1.33;;;;;;;;;;4935164;28;93684;-88
2023/01/07 09:13:10;;;;;;;2.65;1.40;;;;;;;;;;4933844;28;92743;-87
2023/01/07 09:15:36;;;;;;;1.90;1.55;;;;;;;;;;4934580;28;93849;-87
2023/01/07 09:18:03;;;;;;;1.50;1.30;;;;;;;;;;4932524;28;97137;-87
2023/01/07 09:20:29;;;;;;;4.95;2.20;;;;;;;;;;4934921;28;92613;-87
2023/01/07 09:22:57;;;;;;;8.18;2.25;;;;;;;;;;4937836;28;92365;-86
2023/01/07 09:25:23;;;;;;;5.20;1.67;;;;;;;;;;4933678;28;92385;-86
2023/01/07 09:27:49;;;;;;;4.70;1.50;;;;;;;;;;4933751;28;95713;-90
2023/01/07 09:30:16;;;;;;;9.73;1.50;;;;;;;;;;4934486;28;97484;-86
2023/01/07 09:32:43;;;;;;;3.85;1.20;;;;;;;;;;4934434;28;92481;-87
2023/01/07 09:35:09;;;;;;;2.22;1.33;;;;;;;;;;4933162;28;93799;-86
2023/01/07 09:37:36;;;;;;;1.48;1.38;;;;;;;;;;4931491;28;94092;-87
2023/01/07 09:40:03;;;;;;;3.10;1.45;;;;;;;;;;4935424;28;92468;-87
2023/01/07 09:42:40;;;;;;;1.23;1.05;;;;;;;;;;4931958;28;97086;-87
2023/01/07 09:45:15;;;;;;;1.77;1.30;;;;;;;;;;4937104;28;94539;-88
2023/01/07 09:47:42;;;;;;;1.10;1.10;;;;;;;;;;4947269;28;95708;-87
2023/01/07 09:50:23;;;;;;;4.35;1.40;;;;;;;;;;4931196;28;93293;-88
2023/01/07 09:52:52;;;;;;;1.73;1.15;;;;;;;;;;4933628;28;92540;-88
2023/01/07 09:55:21;;;;;;;1.60;1.50;;;;;;;;;;4935521;28;97415;-87
2023/01/07 09:57:48;;;;;;;7.32;1.30;;;;;;;;;;4933672;28;97076;-87
2023/01/07 10:00:19;;;;;;;1.70;1.38;;;;;;;;;;4934078;28;92441;-87
2023/01/07 10:02:46;;;;;;;3.30;1.25;;;;;;;;;;4921137;28;95919;-88
2023/01/07 10:05:12;;;;;;;2.50;1.40;;;;;;;;;;4932030;28;96341;-87
2023/01/07 10:07:43;;;;;;;2.40;1.63;;;;;;;;;;4934785;28;95020;-88
2023/01/07 10:10:22;;;;;;;2.13;1.70;;;;;;;;;;4932702;28;97358;-87
2023/01/07 10:12:58;;;;;;;2.55;1.50;;;;;;;;;;4933633;28;92412;-88
2023/01/07 10:15:36;;;;;;;1.92;1.70;;;;;;;;;;4938057;28;92920;-87
2023/01/07 10:18:11;;;;;;;3.55;1.67;;;;;;;;;;4935848;28;94492;-87
2023/01/07 10:20:37;;;;;;;2.45;1.70;;;;;;;;;;4937478;28;92634;-88
2023/01/07 10:23:27;;;;;;;3.38;1.35;;;;;;;;;;4937396;28;93466;-87
2023/01/07 10:25:55;;;;;;;2.00;1.53;;;;;;;;;;4951807;28;93708;-88
2023/01/07 10:28:24;;;;;;;2.45;1.77;;;;;;;;;;4924076;28;92381;-87
2023/01/07 10:30:51;;;;;;;3.67;1.50;;;;;;;;;;4924234;28;94247;-87
2023/01/07 10:33:17;;;;;;;2.13;1.45;;;;;;;;;;4935821;28;95634;-94
2023/01/07 10:35:46;;;;;;;3.40;1.50;;;;;;;;;;4939114;28;95728;-94
2023/01/07 10:38:17;;;;;;;2.22;1.40;;;;;;;;;;4937645;28;95594;-94
2023/01/07 10:40:47;;;;;;;2.90;1.52;;;;;;;;;;4924383;28;92538;-88
2023/01/07 10:43:13;;;;;;;;;;;;;;;;;;4939589;28;93978;-91
2023/01/07 10:45:51;;;;;;;1.73;1.40;;;;;;;;;;4955919;28;122929;-93
2023/01/07 10:48:23;;;;;;;2.75;1.30;;;;;;;;;;4940953;28;92424;-93
2023/01/07 10:50:49;;;;;;;4.30;2.00;;;;;;;;;;4944148;28;94151;-93
2023/01/07 10:53:16;;;;;;;3.90;1.60;;;;;;;;;;4940364;28;92641;-94
2023/01/07 10:55:50;;;;;;;1.58;1.25;;;;;;;;;;4941309;28;95514;-93
2023/01/07 10:58:17;;;;;;;2.00;1.33;;;;;;;;;;4938775;28;98056;-95
2023/01/07 11:00:46;;;;;;;2.42;1.40;;;;;;;;;;4940626;28;92489;-94
2023/01/07 11:03:20;;;;;;;3.40;1.10;;;;;;;;;;4938620;28;93416;-93
2023/01/07 11:05:50;;;;;;;1.38;1.02;;;;;;;;;;4953101;28;96622;-92
2023/01/07 11:08:28;;;;;;;2.05;1.30;;;;;;;;;;4937039;28;92522;-90
2023/01/07 11:11:02;;;;;;;10.20;1.35;;;;;;;;;;4925214;28;96860;-94
2023/01/07 11:13:39;;;;;;;8.88;1.75;;;;;;;;;;4942860;28;93647;-94
2023/01/07 11:16:29;;;;;;;1.90;1.33;;;;;;;;;;4906748;28;93657;-92
2023/01/07 11:19:00;;;;;;;1.20;1.10;;;;;;;;;;4901518;28;97206;-91
2023/01/07 11:21:30;;;;;;;1.70;1.50;;;;;;;;;;4902680;28;92478;-92
2023/01/07 11:24:20;;;;;;;4.80;1.02;;;;;;;;;;4902127;28;97275;-95
2023/01/07 11:26:47;;;;;;;2.35;1.10;;;;;;;;;;4902249;28;97205;-90
2023/01/07 11:32:31;;;;;;;1.40;1.30;;;;;;;;;;4916744;28;96409;-94
2023/01/07 11:35:17;;;;;;;3.63;1.05;;;;;;;;;;4902568;28;97682;-92
2023/01/07 11:37:48;;;;;;;3.63;1.20;;;;;;;;;;4907711;28;92522;-93
2023/01/07 11:40:14;;;;;;;3.15;1.15;;;;;;;;;;4896343;28;96550;-94
2023/01/07 11:42:55;;;;;;;2.17;1.00;;;;;;;;;;4941325;28;91921;-91
2023/01/07 11:45:24;;;;;;;0.90;0.90;;;;;;;;;;4939998;28;94199;-92
2023/01/07 11:48:00;;;;;;;1.70;1.38;;;;;;;;;;4940258;28;96605;-90
2023/01/07 11:50:28;;;;;;;1.33;1.23;;;;;;;;;;4935701;28;95875;-91
2023/01/07 11:53:20;;;;;;;1.55;1.08;;;;;;;;;;4937783;28;97487;-90
2023/01/07 11:56:00;;;;;;;1.73;1.10;;;;;;;;;;4936816;28;95249;-90
2023/01/07 11:58:33;;;;;;;3.40;1.20;;;;;;;;;;4938455;28;92429;-92
2023/01/07 12:01:03;;;;;;;3.20;1.60;;;;;;;;;;4941536;28;96276;-92
2023/01/07 12:03:30;;;;;;;5.32;2.00;;;;;;;;;;4937713;28;92376;-93
2023/01/07 12:05:58;;;;;;;6.18;2.45;;;;;;;;;;4936004;28;95356;-92
2023/01/07 12:08:26;;;;;;;3.22;1.50;;;;;;;;;;4938357;28;96946;-96
2023/01/07 12:10:54;;;;;;;1.20;1.08;;;;;;;;;;4938663;28;92497;-93
2023/01/07 12:13:23;;;;;;;2.33;1.23;;;;;;;;;;4939835;28;95787;-92
2023/01/07 12:15:56;;;;;;;1.65;0.90;;;;;;;;;;4937495;28;100338;-88
2023/01/07 12:18:32;;;;;;;1.17;0.98;;;;;;;;;;4926883;28;92780;-89
2023/01/07 12:21:08;;;;;;;1.08;0.93;;;;;;;;;;4932047;28;94219;-89
2023/01/07 12:23:40;;;;;;;1.15;1.00;;;;;;;;;;4933276;28;94131;-88
2023/01/07 12:26:32;;;;;;;0.90;0.90;;;;;;;;;;4937410;28;94250;-94
2023/01/07 12:29:05;;;;;;;1.17;1.10;;;;;;;;;;4929404;28;93749;-88
2023/01/07 12:31:43;;;;;;;1.33;1.00;;;;;;;;;;4928794;28;94018;-89
2023/01/07 12:34:18;;;;;;;1.00;0.90;;;;;;;;;;4937907;28;94246;-88
2023/01/07 12:37:00;;;;;;;1.65;1.20;;;;;;;;;;4936728;28;96852;-87
2023/01/07 12:39:34;;;;;;;2.65;1.80;;;;;;;;;;4941283;28;92484;-96
2023/01/07 12:42:23;;;;;;;1.02;1.00;;;;;;;;;;4939832;28;96589;-91
2023/01/07 12:44:51;;;;;;;1.52;1.00;;;;;;;;;;4937198;28;94462;-90
2023/01/07 12:47:25;;;;;;;7.57;1.02;;;;;;;;;;4936880;28;93806;-94
2023/01/07 12:49:58;;;;;;;;;;;;;;;;;;4936292;28;96981;-89
2023/01/07 12:52:34;;;;;;;5.28;1.10;;;;;;;;;;4939118;28;116757;-94
2023/01/07 12:55:00;;;;;;;1.92;1.10;;;;;;;;;;4949207;28;93895;-91
2023/01/07 12:57:28;;;;;;;1.38;1.00;;;;;;;;;;4938475;28;97132;-89
2023/01/07 13:00:01;;;;;;;1.20;1.10;;;;;;;;;;4939920;28;91888;-91
2023/01/07 13:05:15;;;;;;;1.08;1.00;;;;;;;;;;4933948;28;92816;-69
2023/01/07 13:07:48;;;;;;;1.00;1.00;;;;;;;;;;4937333;28;94834;-67
2023/01/07 13:10:17;;;;;;;2.50;1.42;;;;;;;;;;4935489;28;93475;-67
2023/01/07 13:12:45;;;;;;;1.20;1.10;;;;;;;;;;4934876;28;92739;-68
2023/01/07 13:15:20;;;;;;;1.08;1.08;;;;;;;;;;4932907;28;93299;-67
2023/01/07 13:17:48;;;;;;;1.35;1.25;;;;;;;;;;4933268;28;96717;-68
2023/01/07 13:20:15;;;;;;;2.58;1.65;;;;;;;;;;4935499;28;92545;-68
2023/01/07 13:22:47;;;;;;;2.58;1.48;;;;;;;;;;4938627;28;93194;-67
2023/01/07 13:25:26;;;;;;;1.20;1.20;;;;;;;;;;4954005;28;93198;-68
2023/01/07 13:27:52;;;;;;;2.15;1.40;;;;;;;;;;4955164;28;92832;-67
2023/01/07 13:30:25;;;;;;;2.05;1.10;;;;;;;;;;4957492;28;93217;-68
2023/01/07 13:33:17;;;;;;;3.20;1.40;;;;;;;;;;4932560;28;94963;-68
2023/01/07 13:35:51;;;;;;;2.80;1.13;;;;;;;;;;4951941;28;95652;-68
2023/01/07 13:38:33;;;;;;;1.92;1.13;;;;;;;;;;4946350;28;93732;-68
2023/01/07 13:41:08;;;;;;;2.08;1.50;;;;;;;;;;4934638;28;92877;-67
2023/01/07 13:43:57;;;;;;;1.58;1.48;;;;;;;;;;4936089;28;93112;-68
2023/01/07 13:46:29;;;;;;;1.35;1.25;;;;;;;;;;4928197;28;92670;-68
2023/01/07 13:48:55;;;;;;;18.05;1.80;;;;;;;;;;4934956;28;92514;-68
2023/01/07 13:51:29;;;;;;;4.95;1.50;;;;;;;;;;4940534;28;94210;-68
2023/01/07 13:53:56;;;;;;;1.30;1.20;;;;;;;;;;4945141;28;95868;-67
2023/01/07 13:56:22;;;;;;;2.88;1.58;;;;;;;;;;4938560;28;93145;-68
2023/01/07 13:58:52;;;;;;;5.10;1.55;;;;;;;;;;4936946;28;96174;-67
2023/01/07 14:01:19;;;;;;;5.37;2.47;;;;;;;;;;4937437;28;92878;-68
2023/01/07 14:04:01;;;;;;;2.13;1.73;;;;;;;;;;4931180;28;93183;-67
2023/01/07 14:06:37;;;;;;;3.20;1.65;;;;;;;;;;4936127;28;93776;-67
2023/01/07 14:09:07;;;;;;;1.70;1.60;;;;;;;;;;4938198;28;92868;-67
2023/01/07 14:11:34;;;;;;;2.42;1.40;;;;;;;;;;4936751;28;93481;-68
2023/01/07 14:14:10;;;;;;;1.40;1.30;;;;;;;;;;4938605;28;93799;-67
2023/01/07 14:17:01;;;;;;;1.48;1.38;;;;;;;;;;4947044;28;91611;-67
2023/01/07 14:19:34;;;;;;;1.70;1.60;;;;;;;;;;4937296;28;93150;-67
2023/01/07 14:22:03;;;;;;;2.40;1.80;;;;;;;;;;4934277;28;92772;-67
2023/01/07 14:24:29;;;;;;;1.58;1.48;;;;;;;;;;4936384;28;94843;-67
2023/01/07 14:27:31;;;;;;;2.33;1.70;;;;;;;;;;4937495;28;95203;-68
2023/01/07 14:30:03;;;;;;;4.68;1.80;;;;;;;;;;4865798;28;93225;-67
2023/01/07 14:32:42;;;;;;;5.20;1.50;;;;;;;;;;4863881;28;93905;-68
2023/01/07 14:35:09;;;;;;;1.67;1.58;;;;;;;;;;4862183;28;93240;-67
2023/01/07 14:37:40;;;;;;;2.00;1.63;;;;;;;;;;4877932;28;92497;-67
2023/01/07 14:40:31;;;;;;;2.97;1.73;;;;;;;;;;4880477;28;93048;-67
2023/01/07 14:42:57;;;;;;;;;;;;;;;;;;4877794;28;92076;-68
2023/01/07 14:45:36;;;;;;;1.55;1.45;;;;;;;;;;4877582;28;123135;-67
2023/01/07 14:48:07;;;;;;;2.22;1.92;;;;;;;;;;4878053;28;93500;-67
2023/01/07 14:50:46;;;;;;;2.42;2.05;;;;;;;;;;4859285;28;95017;-68
2023/01/07 14:53:31;;;;;;;4.05;1.70;;;;;;;;;;4878139;28;95722;-68
2023/01/07 14:56:13;;;;;;;28.27;2.60;;;;;;;;;;4875905;28;93488;-68
2023/01/07 14:58:51;;;;;;;6.13;2.00;;;;;;;;;;4861206;28;92886;-67